sensor_id;sensor_type;location;lat;lon;timestamp;P1;durP1;ratioP1;P2;durP2;ratioP2
21630;SDS011;10977;46.802;11.952;2023-01-01T00:00:44;54.20;;;34.25;;
21630;SDS011;10977;46.802;11.952;2023-01-01T00:03:10;54.28;;;34.03;;
21630;SDS011;10977;46.802;11.952;2023-01-01T00:05:39;45.95;;;29.75;;
21630;SDS011;10977;46.802;11.952;2023-01-01T00:08:04;55.30;;;34.72;;
21630;SDS011;10977;46.802;11.952;2023-01-01T00:10:30;43.53;;;31.23;;
21630;SDS011;10977;46.802;11.952;2023-01-01T00:12:56;53.15;;;32.63;;
21630;SDS011;10977;46.802;11.952;2023-01-01T00:15:22;45.08;;;31.02;;
21630;SDS011;10977;46.802;11.952;2023-01-01T00:17:48;42.97;;;30.65;;
21630;SDS011;10977;46.802;11.952;2023-01-01T00:20:13;42.60;;;30.05;;
21630;SDS011;10977;46.802;11.952;2023-01-01T00:22:39;44.17;;;30.40;;
21630;SDS011;10977;46.802;11.952;2023-01-01T00:25:04;47.90;;;30.77;;
21630;SDS011;10977;46.802;11.952;2023-01-01T00:27:30;43.72;;;29.65;;
21630;SDS011;10977;46.802;11.952;2023-01-01T00:29:55;47.72;;;30.33;;
21630;SDS011;10977;46.802;11.952;2023-01-01T00:32:21;46.10;;;31.35;;
21630;SDS011;10977;46.802;11.952;2023-01-01T00:34:46;40.72;;;28.42;;
21630;SDS011;10977;46.802;11.952;2023-01-01T00:37:12;59.03;;;38.03;;
21630;SDS011;10977;46.802;11.952;2023-01-01T00:39:38;61.28;;;37.63;;
21630;SDS011;10977;46.802;11.952;2023-01-01T00:42:04;62.30;;;39.50;;
21630;SDS011;10977;46.802;11.952;2023-01-01T00:44:29;46.75;;;33.38;;
21630;SDS011;10977;46.802;11.952;2023-01-01T00:46:55;63.08;;;40.47;;
21630;SDS011;10977;46.802;11.952;2023-01-01T00:49:20;59.55;;;40.28;;
21630;SDS011;10977;46.802;11.952;2023-01-01T00:51:45;54.83;;;36.78;;
21630;SDS011;10977;46.802;11.952;2023-01-01T00:54:11;51.00;;;35.75;;
21630;SDS011;10977;46.802;11.952;2023-01-01T00:56:37;54.63;;;36.75;;
21630;SDS011;10977;46.802;11.952;2023-01-01T00:59:02;51.33;;;35.95;;
21630;SDS011;10977;46.802;11.952;2023-01-01T01:01:28;62.28;;;39.95;;
21630;SDS011;10977;46.802;11.952;2023-01-01T01:03:53;59.80;;;38.92;;
21630;SDS011;10977;46.802;11.952;2023-01-01T01:06:18;49.33;;;34.00;;
21630;SDS011;10977;46.802;11.952;2023-01-01T01:08:45;59.90;;;38.78;;
21630;SDS011;10977;46.802;11.952;2023-01-01T01:11:18;56.50;;;37.83;;
21630;SDS011;10977;46.802;11.952;2023-01-01T01:13:46;65.43;;;40.50;;
21630;SDS011;10977;46.802;11.952;2023-01-01T01:16:16;59.63;;;41.05;;
21630;SDS011;10977;46.802;11.952;2023-01-01T01:18:44;55.80;;;37.00;;
21630;SDS011;10977;46.802;11.952;2023-01-01T01:21:13;55.10;;;39.30;;
21630;SDS011;10977;46.802;11.952;2023-01-01T01:23:39;51.70;;;36.08;;
21630;SDS011;10977;46.802;11.952;2023-01-01T01:26:15;49.17;;;33.03;;
21630;SDS011;10977;46.802;11.952;2023-01-01T01:28:42;58.35;;;38.40;;
21630;SDS011;10977;46.802;11.952;2023-01-01T01:31:08;61.08;;;40.20;;
21630;SDS011;10977;46.802;11.952;2023-01-01T01:33:34;61.58;;;40.38;;
21630;SDS011;10977;46.802;11.952;2023-01-01T01:36:00;61.40;;;41.75;;
21630;SDS011;10977;46.802;11.952;2023-01-01T01:38:26;63.35;;;39.60;;
21630;SDS011;10977;46.802;11.952;2023-01-01T01:40:52;64.75;;;41.45;;
21630;SDS011;10977;46.802;11.952;2023-01-01T01:43:25;62.08;;;41.17;;
21630;SDS011;10977;46.802;11.952;2023-01-01T01:48:45;59.83;;;39.42;;
21630;SDS011;10977;46.802;11.952;2023-01-01T01:51:17;66.35;;;43.58;;
21630;SDS011;10977;46.802;11.952;2023-01-01T01:53:48;73.07;;;45.63;;
21630;SDS011;10977;46.802;11.952;2023-01-01T01:56:18;68.90;;;42.95;;
21630;SDS011;10977;46.802;11.952;2023-01-01T01:58:49;71.72;;;43.80;;
21630;SDS011;10977;46.802;11.952;2023-01-01T02:01:14;60.83;;;40.63;;
21630;SDS011;10977;46.802;11.952;2023-01-01T02:03:41;56.80;;;37.58;;
21630;SDS011;10977;46.802;11.952;2023-01-01T02:06:11;64.55;;;43.15;;
21630;SDS011;10977;46.802;11.952;2023-01-01T02:08:37;59.40;;;38.17;;
21630;SDS011;10977;46.802;11.952;2023-01-01T02:11:03;60.75;;;41.78;;
21630;SDS011;10977;46.802;11.952;2023-01-01T02:13:28;68.45;;;44.03;;
21630;SDS011;10977;46.802;11.952;2023-01-01T02:16:15;61.45;;;40.15;;
21630;SDS011;10977;46.802;11.952;2023-01-01T02:21:21;64.25;;;41.25;;
21630;SDS011;10977;46.802;11.952;2023-01-01T02:24:00;71.78;;;44.10;;
21630;SDS011;10977;46.802;11.952;2023-01-01T02:32:06;59.50;;;39.15;;
21630;SDS011;10977;46.802;11.952;2023-01-01T02:34:46;63.10;;;40.58;;
21630;SDS011;10977;46.802;11.952;2023-01-01T02:37:16;70.57;;;45.60;;
21630;SDS011;10977;46.802;11.952;2023-01-01T02:39:46;66.22;;;45.30;;
21630;SDS011;10977;46.802;11.952;2023-01-01T02:42:19;62.13;;;40.40;;
21630;SDS011;10977;46.802;11.952;2023-01-01T02:44:47;68.57;;;45.15;;
21630;SDS011;10977;46.802;11.952;2023-01-01T02:47:18;73.53;;;44.83;;
21630;SDS011;10977;46.802;11.952;2023-01-01T02:49:46;63.10;;;41.63;;
21630;SDS011;10977;46.802;11.952;2023-01-01T02:55:44;59.85;;;41.20;;
21630;SDS011;10977;46.802;11.952;2023-01-01T02:58:23;53.10;;;38.08;;
21630;SDS011;10977;46.802;11.952;2023-01-01T03:01:19;59.53;;;40.63;;
21630;SDS011;10977;46.802;11.952;2023-01-01T03:04:04;62.03;;;41.38;;
21630;SDS011;10977;46.802;11.952;2023-01-01T03:06:40;68.75;;;43.80;;
21630;SDS011;10977;46.802;11.952;2023-01-01T03:09:22;55.70;;;36.45;;
21630;SDS011;10977;46.802;11.952;2023-01-01T03:11:56;53.75;;;36.22;;
21630;SDS011;10977;46.802;11.952;2023-01-01T03:14:28;56.10;;;37.63;;
21630;SDS011;10977;46.802;11.952;2023-01-01T03:19:50;61.15;;;39.70;;
21630;SDS011;10977;46.802;11.952;2023-01-01T03:22:17;53.05;;;36.60;;
21630;SDS011;10977;46.802;11.952;2023-01-01T03:24:53;49.08;;;34.03;;
21630;SDS011;10977;46.802;11.952;2023-01-01T03:27:26;49.60;;;32.60;;
21630;SDS011;10977;46.802;11.952;2023-01-01T03:29:56;49.53;;;31.92;;
21630;SDS011;10977;46.802;11.952;2023-01-01T03:32:30;46.65;;;33.75;;
21630;SDS011;10977;46.802;11.952;2023-01-01T03:35:20;47.67;;;33.47;;
21630;SDS011;10977;46.802;11.952;2023-01-01T03:37:50;45.97;;;32.72;;
21630;SDS011;10977;46.802;11.952;2023-01-01T03:40:19;49.67;;;33.65;;
21630;SDS011;10977;46.802;11.952;2023-01-01T03:42:50;45.50;;;30.33;;
21630;SDS011;10977;46.802;11.952;2023-01-01T03:45:21;44.58;;;31.13;;
21630;SDS011;10977;46.802;11.952;2023-01-01T03:47:57;49.25;;;33.97;;
21630;SDS011;10977;46.802;11.952;2023-01-01T03:50:27;51.50;;;34.28;;
21630;SDS011;10977;46.802;11.952;2023-01-01T03:55:54;62.65;;;38.42;;
21630;SDS011;10977;46.802;11.952;2023-01-01T03:58:32;54.63;;;38.47;;
21630;SDS011;10977;46.802;11.952;2023-01-01T04:01:07;57.78;;;38.20;;
21630;SDS011;10977;46.802;11.952;2023-01-01T04:03:36;44.22;;;31.17;;
21630;SDS011;10977;46.802;11.952;2023-01-01T04:06:02;47.65;;;33.33;;
21630;SDS011;10977;46.802;11.952;2023-01-01T04:08:31;54.72;;;34.40;;
21630;SDS011;10977;46.802;11.952;2023-01-01T04:10:58;52.60;;;35.13;;
21630;SDS011;10977;46.802;11.952;2023-01-01T04:13:47;47.63;;;33.20;;
21630;SDS011;10977;46.802;11.952;2023-01-01T04:16:13;50.70;;;33.50;;
21630;SDS011;10977;46.802;11.952;2023-01-01T04:18:38;53.30;;;36.88;;
21630;SDS011;10977;46.802;11.952;2023-01-01T04:21:03;57.65;;;38.80;;
21630;SDS011;10977;46.802;11.952;2023-01-01T04:23:29;62.00;;;41.45;;
21630;SDS011;10977;46.802;11.952;2023-01-01T04:25:54;58.38;;;38.55;;
21630;SDS011;10977;46.802;11.952;2023-01-01T04:28:19;55.95;;;37.15;;
21630;SDS011;10977;46.802;11.952;2023-01-01T04:30:45;64.78;;;42.15;;
21630;SDS011;10977;46.802;11.952;2023-01-01T04:33:10;65.93;;;43.58;;
21630;SDS011;10977;46.802;11.952;2023-01-01T04:35:35;68.10;;;43.15;;
21630;SDS011;10977;46.802;11.952;2023-01-01T04:38:01;64.82;;;42.35;;
21630;SDS011;10977;46.802;11.952;2023-01-01T04:40:27;58.55;;;40.58;;
21630;SDS011;10977;46.802;11.952;2023-01-01T04:42:53;58.28;;;37.80;;
21630;SDS011;10977;46.802;11.952;2023-01-01T04:45:18;61.38;;;40.83;;
21630;SDS011;10977;46.802;11.952;2023-01-01T04:47:44;57.45;;;36.80;;
21630;SDS011;10977;46.802;11.952;2023-01-01T04:50:09;61.20;;;39.05;;
21630;SDS011;10977;46.802;11.952;2023-01-01T04:52:35;60.85;;;39.80;;
21630;SDS011;10977;46.802;11.952;2023-01-01T04:55:00;59.97;;;41.03;;
21630;SDS011;10977;46.802;11.952;2023-01-01T04:57:27;56.97;;;37.42;;
21630;SDS011;10977;46.802;11.952;2023-01-01T04:59:54;55.78;;;37.15;;
21630;SDS011;10977;46.802;11.952;2023-01-01T05:02:19;55.05;;;36.72;;
21630;SDS011;10977;46.802;11.952;2023-01-01T05:04:44;55.85;;;37.72;;
21630;SDS011;10977;46.802;11.952;2023-01-01T05:07:10;59.33;;;38.70;;
21630;SDS011;10977;46.802;11.952;2023-01-01T05:09:35;78.63;;;50.97;;
21630;SDS011;10977;46.802;11.952;2023-01-01T05:12:00;60.10;;;39.80;;
21630;SDS011;10977;46.802;11.952;2023-01-01T05:14:26;57.20;;;38.47;;
21630;SDS011;10977;46.802;11.952;2023-01-01T05:16:51;57.63;;;38.65;;
21630;SDS011;10977;46.802;11.952;2023-01-01T05:19:17;54.42;;;37.88;;
21630;SDS011;10977;46.802;11.952;2023-01-01T05:21:42;56.95;;;39.20;;
21630;SDS011;10977;46.802;11.952;2023-01-01T05:24:09;53.67;;;36.47;;
21630;SDS011;10977;46.802;11.952;2023-01-01T05:26:39;49.15;;;34.13;;
21630;SDS011;10977;46.802;11.952;2023-01-01T05:29:06;46.53;;;33.17;;
21630;SDS011;10977;46.802;11.952;2023-01-01T05:31:33;45.45;;;32.67;;
21630;SDS011;10977;46.802;11.952;2023-01-01T05:34:00;53.63;;;34.40;;
21630;SDS011;10977;46.802;11.952;2023-01-01T05:36:27;48.55;;;34.60;;
21630;SDS011;10977;46.802;11.952;2023-01-01T05:38:54;49.25;;;35.22;;
21630;SDS011;10977;46.802;11.952;2023-01-01T05:41:21;50.83;;;34.65;;
21630;SDS011;10977;46.802;11.952;2023-01-01T05:43:47;52.20;;;35.53;;
21630;SDS011;10977;46.802;11.952;2023-01-01T05:46:14;49.15;;;33.63;;
21630;SDS011;10977;46.802;11.952;2023-01-01T05:48:42;50.65;;;33.92;;
21630;SDS011;10977;46.802;11.952;2023-01-01T05:51:10;51.28;;;32.60;;
21630;SDS011;10977;46.802;11.952;2023-01-01T05:53:36;61.55;;;40.45;;
21630;SDS011;10977;46.802;11.952;2023-01-01T05:56:02;62.55;;;41.92;;
21630;SDS011;10977;46.802;11.952;2023-01-01T05:58:29;60.75;;;40.03;;
21630;SDS011;10977;46.802;11.952;2023-01-01T06:00:55;57.25;;;38.50;;
21630;SDS011;10977;46.802;11.952;2023-01-01T06:03:21;58.45;;;38.60;;
21630;SDS011;10977;46.802;11.952;2023-01-01T06:05:47;56.83;;;40.03;;
21630;SDS011;10977;46.802;11.952;2023-01-01T06:08:12;60.75;;;40.33;;
21630;SDS011;10977;46.802;11.952;2023-01-01T06:10:37;55.65;;;37.80;;
21630;SDS011;10977;46.802;11.952;2023-01-01T06:13:03;49.90;;;34.92;;
21630;SDS011;10977;46.802;11.952;2023-01-01T06:15:29;43.28;;;31.80;;
21630;SDS011;10977;46.802;11.952;2023-01-01T06:17:54;47.83;;;32.35;;
21630;SDS011;10977;46.802;11.952;2023-01-01T06:20:20;44.08;;;31.08;;
21630;SDS011;10977;46.802;11.952;2023-01-01T06:22:45;42.83;;;30.65;;
21630;SDS011;10977;46.802;11.952;2023-01-01T06:25:11;45.60;;;31.15;;
21630;SDS011;10977;46.802;11.952;2023-01-01T06:27:37;55.63;;;36.38;;
21630;SDS011;10977;46.802;11.952;2023-01-01T06:30:03;55.28;;;37.95;;
21630;SDS011;10977;46.802;11.952;2023-01-01T06:32:29;49.00;;;32.78;;
21630;SDS011;10977;46.802;11.952;2023-01-01T06:34:55;52.58;;;34.45;;
21630;SDS011;10977;46.802;11.952;2023-01-01T06:37:20;43.08;;;29.83;;
21630;SDS011;10977;46.802;11.952;2023-01-01T06:39:45;49.80;;;34.53;;
21630;SDS011;10977;46.802;11.952;2023-01-01T06:42:11;52.15;;;33.60;;
21630;SDS011;10977;46.802;11.952;2023-01-01T06:44:36;45.25;;;30.70;;
21630;SDS011;10977;46.802;11.952;2023-01-01T06:47:01;48.67;;;33.47;;
21630;SDS011;10977;46.802;11.952;2023-01-01T06:49:27;49.58;;;34.05;;
21630;SDS011;10977;46.802;11.952;2023-01-01T06:51:52;45.35;;;30.48;;
21630;SDS011;10977;46.802;11.952;2023-01-01T06:54:17;43.17;;;30.15;;
21630;SDS011;10977;46.802;11.952;2023-01-01T06:56:43;39.47;;;28.83;;
21630;SDS011;10977;46.802;11.952;2023-01-01T06:59:08;48.60;;;33.75;;
21630;SDS011;10977;46.802;11.952;2023-01-01T07:01:35;40.83;;;29.40;;
21630;SDS011;10977;46.802;11.952;2023-01-01T07:04:09;50.08;;;33.65;;
21630;SDS011;10977;46.802;11.952;2023-01-01T07:06:36;55.05;;;34.60;;
21630;SDS011;10977;46.802;11.952;2023-01-01T07:09:02;44.78;;;31.67;;
21630;SDS011;10977;46.802;11.952;2023-01-01T07:11:29;43.22;;;29.50;;
21630;SDS011;10977;46.802;11.952;2023-01-01T07:13:54;45.33;;;29.85;;
21630;SDS011;10977;46.802;11.952;2023-01-01T07:16:20;47.85;;;31.80;;
21630;SDS011;10977;46.802;11.952;2023-01-01T07:18:46;39.53;;;26.58;;
21630;SDS011;10977;46.802;11.952;2023-01-01T07:21:33;42.25;;;30.00;;
21630;SDS011;10977;46.802;11.952;2023-01-01T07:24:09;42.80;;;30.73;;
21630;SDS011;10977;46.802;11.952;2023-01-01T07:26:36;46.97;;;31.52;;
21630;SDS011;10977;46.802;11.952;2023-01-01T07:29:01;42.90;;;29.83;;
21630;SDS011;10977;46.802;11.952;2023-01-01T07:31:27;49.75;;;34.28;;
21630;SDS011;10977;46.802;11.952;2023-01-01T07:33:52;44.83;;;31.42;;
21630;SDS011;10977;46.802;11.952;2023-01-01T07:36:17;48.63;;;32.22;;
21630;SDS011;10977;46.802;11.952;2023-01-01T07:38:43;45.70;;;30.75;;
21630;SDS011;10977;46.802;11.952;2023-01-01T07:41:08;47.10;;;33.88;;
21630;SDS011;10977;46.802;11.952;2023-01-01T07:43:33;50.70;;;31.88;;
21630;SDS011;10977;46.802;11.952;2023-01-01T07:45:59;49.50;;;32.63;;
21630;SDS011;10977;46.802;11.952;2023-01-01T07:48:25;51.20;;;35.60;;
21630;SDS011;10977;46.802;11.952;2023-01-01T07:50:51;46.75;;;31.65;;
21630;SDS011;10977;46.802;11.952;2023-01-01T07:53:16;50.15;;;33.95;;
21630;SDS011;10977;46.802;11.952;2023-01-01T07:55:42;44.50;;;31.05;;
21630;SDS011;10977;46.802;11.952;2023-01-01T07:58:09;47.28;;;33.38;;
21630;SDS011;10977;46.802;11.952;2023-01-01T08:00:35;47.83;;;33.67;;
21630;SDS011;10977;46.802;11.952;2023-01-01T08:03:01;46.75;;;32.15;;
21630;SDS011;10977;46.802;11.952;2023-01-01T08:05:27;51.05;;;36.00;;
21630;SDS011;10977;46.802;11.952;2023-01-01T08:07:52;51.95;;;34.53;;
21630;SDS011;10977;46.802;11.952;2023-01-01T08:10:18;45.83;;;34.50;;
21630;SDS011;10977;46.802;11.952;2023-01-01T08:12:44;46.28;;;32.78;;
21630;SDS011;10977;46.802;11.952;2023-01-01T08:15:10;51.38;;;38.05;;
21630;SDS011;10977;46.802;11.952;2023-01-01T08:17:36;52.85;;;37.10;;
21630;SDS011;10977;46.802;11.952;2023-01-01T08:20:02;49.75;;;36.17;;
21630;SDS011;10977;46.802;11.952;2023-01-01T08:22:29;49.45;;;35.13;;
21630;SDS011;10977;46.802;11.952;2023-01-01T08:24:54;52.05;;;37.25;;
21630;SDS011;10977;46.802;11.952;2023-01-01T08:27:19;53.10;;;37.33;;
21630;SDS011;10977;46.802;11.952;2023-01-01T08:29:44;45.25;;;34.53;;
21630;SDS011;10977;46.802;11.952;2023-01-01T08:32:10;52.30;;;37.35;;
21630;SDS011;10977;46.802;11.952;2023-01-01T08:34:36;47.00;;;33.78;;
21630;SDS011;10977;46.802;11.952;2023-01-01T08:37:02;52.75;;;37.70;;
21630;SDS011;10977;46.802;11.952;2023-01-01T08:39:27;52.60;;;38.95;;
21630;SDS011;10977;46.802;11.952;2023-01-01T08:41:53;51.47;;;36.92;;
21630;SDS011;10977;46.802;11.952;2023-01-01T08:44:18;45.55;;;33.03;;
21630;SDS011;10977;46.802;11.952;2023-01-01T08:46:44;53.60;;;36.75;;
21630;SDS011;10977;46.802;11.952;2023-01-01T08:49:09;56.60;;;40.30;;
21630;SDS011;10977;46.802;11.952;2023-01-01T08:51:35;54.80;;;38.15;;
21630;SDS011;10977;46.802;11.952;2023-01-01T08:54:00;52.97;;;38.05;;
21630;SDS011;10977;46.802;11.952;2023-01-01T08:56:25;93.55;;;63.28;;
21630;SDS011;10977;46.802;11.952;2023-01-01T08:58:51;78.53;;;50.78;;
21630;SDS011;10977;46.802;11.952;2023-01-01T09:01:16;60.28;;;40.28;;
21630;SDS011;10977;46.802;11.952;2023-01-01T09:03:45;51.92;;;36.85;;
21630;SDS011;10977;46.802;11.952;2023-01-01T09:06:11;55.08;;;37.80;;
21630;SDS011;10977;46.802;11.952;2023-01-01T09:08:36;48.63;;;34.75;;
21630;SDS011;10977;46.802;11.952;2023-01-01T09:11:02;43.08;;;33.17;;
21630;SDS011;10977;46.802;11.952;2023-01-01T09:13:28;42.33;;;30.52;;
21630;SDS011;10977;46.802;11.952;2023-01-01T09:15:54;46.30;;;33.53;;
21630;SDS011;10977;46.802;11.952;2023-01-01T09:18:20;44.28;;;32.15;;
21630;SDS011;10977;46.802;11.952;2023-01-01T09:20:45;43.45;;;30.70;;
21630;SDS011;10977;46.802;11.952;2023-01-01T09:23:11;40.10;;;31.13;;
21630;SDS011;10977;46.802;11.952;2023-01-01T09:25:37;40.67;;;30.20;;
21630;SDS011;10977;46.802;11.952;2023-01-01T09:28:04;35.90;;;28.00;;
21630;SDS011;10977;46.802;11.952;2023-01-01T09:30:32;34.22;;;25.73;;
21630;SDS011;10977;46.802;11.952;2023-01-01T09:32:58;28.98;;;23.63;;
21630;SDS011;10977;46.802;11.952;2023-01-01T09:35:23;35.03;;;26.52;;
21630;SDS011;10977;46.802;11.952;2023-01-01T09:37:49;32.55;;;25.67;;
21630;SDS011;10977;46.802;11.952;2023-01-01T09:40:28;36.58;;;28.17;;
21630;SDS011;10977;46.802;11.952;2023-01-01T09:45:50;37.80;;;29.80;;
21630;SDS011;10977;46.802;11.952;2023-01-01T09:48:21;40.72;;;30.20;;
21630;SDS011;10977;46.802;11.952;2023-01-01T09:50:48;44.03;;;31.27;;
21630;SDS011;10977;46.802;11.952;2023-01-01T09:55:49;40.40;;;28.63;;
21630;SDS011;10977;46.802;11.952;2023-01-01T09:58:24;38.50;;;26.98;;
21630;SDS011;10977;46.802;11.952;2023-01-01T10:00:52;44.67;;;30.27;;
21630;SDS011;10977;46.802;11.952;2023-01-01T10:03:24;53.85;;;34.50;;
21630;SDS011;10977;46.802;11.952;2023-01-01T10:06:14;50.70;;;34.08;;
21630;SDS011;10977;46.802;11.952;2023-01-01T10:09:00;42.92;;;30.52;;
21630;SDS011;10977;46.802;11.952;2023-01-01T10:14:51;36.28;;;27.50;;
21630;SDS011;10977;46.802;11.952;2023-01-01T10:17:33;33.22;;;27.38;;
21630;SDS011;10977;46.802;11.952;2023-01-01T10:20:13;29.42;;;25.00;;
21630;SDS011;10977;46.802;11.952;2023-01-01T10:22:45;27.20;;;23.45;;
21630;SDS011;10977;46.802;11.952;2023-01-01T10:25:16;28.92;;;25.13;;
21630;SDS011;10977;46.802;11.952;2023-01-01T10:27:46;27.23;;;23.92;;
21630;SDS011;10977;46.802;11.952;2023-01-01T10:30:21;28.38;;;24.80;;
21630;SDS011;10977;46.802;11.952;2023-01-01T10:32:48;24.50;;;21.35;;
21630;SDS011;10977;46.802;11.952;2023-01-01T10:35:19;21.52;;;19.30;;
21630;SDS011;10977;46.802;11.952;2023-01-01T10:37:47;23.73;;;21.20;;
21630;SDS011;10977;46.802;11.952;2023-01-01T10:40:21;26.40;;;23.60;;
21630;SDS011;10977;46.802;11.952;2023-01-01T10:42:50;28.58;;;25.25;;
21630;SDS011;10977;46.802;11.952;2023-01-01T10:45:18;29.25;;;24.67;;
21630;SDS011;10977;46.802;11.952;2023-01-01T10:53:31;22.95;;;20.58;;
21630;SDS011;10977;46.802;11.952;2023-01-01T10:56:10;23.45;;;21.05;;
21630;SDS011;10977;46.802;11.952;2023-01-01T11:01:10;21.65;;;19.52;;
21630;SDS011;10977;46.802;11.952;2023-01-01T11:03:51;15.85;;;14.25;;
21630;SDS011;10977;46.802;11.952;2023-01-01T11:08:56;14.60;;;13.10;;
21630;SDS011;10977;46.802;11.952;2023-01-01T11:11:57;13.20;;;11.80;;
21630;SDS011;10977;46.802;11.952;2023-01-01T11:14:26;12.48;;;11.32;;
21630;SDS011;10977;46.802;11.952;2023-01-01T11:16:55;13.05;;;11.63;;
21630;SDS011;10977;46.802;11.952;2023-01-01T11:19:29;15.35;;;13.85;;
21630;SDS011;10977;46.802;11.952;2023-01-01T11:21:58;14.40;;;12.73;;
21630;SDS011;10977;46.802;11.952;2023-01-01T11:24:25;15.90;;;14.30;;
21630;SDS011;10977;46.802;11.952;2023-01-01T11:26:53;15.77;;;14.18;;
21630;SDS011;10977;46.802;11.952;2023-01-01T11:29:37;15.05;;;13.55;;
21630;SDS011;10977;46.802;11.952;2023-01-01T11:32:02;15.80;;;14.30;;
21630;SDS011;10977;46.802;11.952;2023-01-01T11:39:50;14.95;;;13.45;;
21630;SDS011;10977;46.802;11.952;2023-01-01T11:42:20;15.68;;;14.18;;
21630;SDS011;10977;46.802;11.952;2023-01-01T11:44:53;16.42;;;14.85;;
21630;SDS011;10977;46.802;11.952;2023-01-01T11:50:17;15.85;;;14.35;;
21630;SDS011;10977;46.802;11.952;2023-01-01T11:52:51;14.82;;;13.43;;
21630;SDS011;10977;46.802;11.952;2023-01-01T11:58:17;16.40;;;14.70;;
21630;SDS011;10977;46.802;11.952;2023-01-01T12:00:44;16.73;;;15.13;;
21630;SDS011;10977;46.802;11.952;2023-01-01T12:05:48;17.77;;;15.98;;
21630;SDS011;10977;46.802;11.952;2023-01-01T12:09:04;20.33;;;16.08;;
21630;SDS011;10977;46.802;11.952;2023-01-01T12:11:24;16.92;;;15.00;;
21630;SDS011;10977;46.802;11.952;2023-01-01T12:13:58;17.52;;;15.73;;
21630;SDS011;10977;46.802;11.952;2023-01-01T12:19:08;14.48;;;13.07;;
21630;SDS011;10977;46.802;11.952;2023-01-01T12:21:40;17.08;;;14.63;;
21630;SDS011;10977;46.802;11.952;2023-01-01T12:24:11;18.70;;;16.73;;
21630;SDS011;10977;46.802;11.952;2023-01-01T12:34:17;17.23;;;15.50;;
21630;SDS011;10977;46.802;11.952;2023-01-01T12:39:52;13.40;;;11.95;;
21630;SDS011;10977;46.802;11.952;2023-01-01T12:59:12;7.15;;;5.82;;
21630;SDS011;10977;46.802;11.952;2023-01-01T13:01:44;6.45;;;5.75;;
21630;SDS011;10977;46.802;11.952;2023-01-01T13:04:11;7.18;;;6.40;;
21630;SDS011;10977;46.802;11.952;2023-01-01T13:06:46;9.68;;;8.00;;
21630;SDS011;10977;46.802;11.952;2023-01-01T13:11:58;7.97;;;7.18;;
21630;SDS011;10977;46.802;11.952;2023-01-01T13:14:28;9.00;;;8.10;;
21630;SDS011;10977;46.802;11.952;2023-01-01T13:16:54;8.13;;;7.25;;
21630;SDS011;10977;46.802;11.952;2023-01-01T13:21:54;8.43;;;7.57;;
21630;SDS011;10977;46.802;11.952;2023-01-01T13:24:24;10.48;;;7.68;;
21630;SDS011;10977;46.802;11.952;2023-01-01T13:26:51;10.43;;;7.07;;
21630;SDS011;10977;46.802;11.952;2023-01-01T13:45:15;8.45;;;7.05;;
21630;SDS011;10977;46.802;11.952;2023-01-01T13:58:23;9.82;;;7.13;;
21630;SDS011;10977;46.802;11.952;2023-01-01T14:03:35;7.78;;;6.82;;
21630;SDS011;10977;46.802;11.952;2023-01-01T14:06:09;8.98;;;7.78;;
21630;SDS011;10977;46.802;11.952;2023-01-01T14:08:36;7.85;;;6.75;;
21630;SDS011;10977;46.802;11.952;2023-01-01T14:11:14;7.07;;;6.15;;
21630;SDS011;10977;46.802;11.952;2023-01-01T14:13:45;6.88;;;6.18;;
21630;SDS011;10977;46.802;11.952;2023-01-01T14:16:11;7.57;;;6.22;;
21630;SDS011;10977;46.802;11.952;2023-01-01T14:21:13;9.52;;;6.18;;
21630;SDS011;10977;46.802;11.952;2023-01-01T14:23:42;7.68;;;6.72;;
21630;SDS011;10977;46.802;11.952;2023-01-01T14:26:11;6.85;;;5.95;;
21630;SDS011;10977;46.802;11.952;2023-01-01T14:28:39;7.43;;;5.20;;
21630;SDS011;10977;46.802;11.952;2023-01-01T14:31:09;6.82;;;6.13;;
21630;SDS011;10977;46.802;11.952;2023-01-01T14:33:38;7.15;;;5.85;;
21630;SDS011;10977;46.802;11.952;2023-01-01T14:36:04;6.93;;;6.07;;
21630;SDS011;10977;46.802;11.952;2023-01-01T14:38:43;8.20;;;6.75;;
21630;SDS011;10977;46.802;11.952;2023-01-01T14:43:52;9.32;;;7.28;;
21630;SDS011;10977;46.802;11.952;2023-01-01T14:46:20;7.95;;;7.13;;
21630;SDS011;10977;46.802;11.952;2023-01-01T14:48:49;7.70;;;6.72;;
21630;SDS011;10977;46.802;11.952;2023-01-01T14:51:24;9.55;;;7.80;;
21630;SDS011;10977;46.802;11.952;2023-01-01T14:53:57;8.35;;;7.35;;
21630;SDS011;10977;46.802;11.952;2023-01-01T14:56:27;9.18;;;7.47;;
21630;SDS011;10977;46.802;11.952;2023-01-01T14:59:10;10.80;;;7.50;;
21630;SDS011;10977;46.802;11.952;2023-01-01T15:01:39;8.38;;;7.50;;
21630;SDS011;10977;46.802;11.952;2023-01-01T15:04:22;8.75;;;7.53;;
21630;SDS011;10977;46.802;11.952;2023-01-01T15:06:56;10.50;;;7.72;;
21630;SDS011;10977;46.802;11.952;2023-01-01T15:09:24;10.20;;;8.15;;
21630;SDS011;10977;46.802;11.952;2023-01-01T15:11:54;9.73;;;7.72;;
21630;SDS011;10977;46.802;11.952;2023-01-01T15:14:36;8.55;;;7.43;;
21630;SDS011;10977;46.802;11.952;2023-01-01T15:17:10;33.67;;;24.92;;
21630;SDS011;10977;46.802;11.952;2023-01-01T15:19:38;26.60;;;20.23;;
21630;SDS011;10977;46.802;11.952;2023-01-01T15:24:52;12.40;;;10.20;;
21630;SDS011;10977;46.802;11.952;2023-01-01T15:27:35;12.18;;;10.32;;
21630;SDS011;10977;46.802;11.952;2023-01-01T15:30:03;10.90;;;8.68;;
21630;SDS011;10977;46.802;11.952;2023-01-01T15:32:34;10.95;;;8.15;;
21630;SDS011;10977;46.802;11.952;2023-01-01T15:35:03;10.00;;;7.97;;
21630;SDS011;10977;46.802;11.952;2023-01-01T15:37:40;11.60;;;8.20;;
21630;SDS011;10977;46.802;11.952;2023-01-01T15:42:38;12.60;;;7.97;;
21630;SDS011;10977;46.802;11.952;2023-01-01T15:47:41;12.73;;;9.07;;
21630;SDS011;10977;46.802;11.952;2023-01-01T15:50:24;17.33;;;10.82;;
21630;SDS011;10977;46.802;11.952;2023-01-01T15:53:00;15.68;;;11.38;;
21630;SDS011;10977;46.802;11.952;2023-01-01T15:55:32;15.75;;;10.35;;
21630;SDS011;10977;46.802;11.952;2023-01-01T15:58:01;14.27;;;9.85;;
21630;SDS011;10977;46.802;11.952;2023-01-01T16:00:30;18.10;;;12.10;;
21630;SDS011;10977;46.802;11.952;2023-01-01T16:03:00;19.50;;;12.60;;
21630;SDS011;10977;46.802;11.952;2023-01-01T16:05:45;17.38;;;12.13;;
21630;SDS011;10977;46.802;11.952;2023-01-01T16:08:11;39.90;;;22.38;;
21630;SDS011;10977;46.802;11.952;2023-01-01T16:10:37;67.93;;;33.97;;
21630;SDS011;10977;46.802;11.952;2023-01-01T16:13:02;86.25;;;45.30;;
21630;SDS011;10977;46.802;11.952;2023-01-01T16:15:27;69.10;;;37.10;;
21630;SDS011;10977;46.802;11.952;2023-01-01T16:17:53;65.43;;;36.53;;
21630;SDS011;10977;46.802;11.952;2023-01-01T16:20:19;63.05;;;33.50;;
21630;SDS011;10977;46.802;11.952;2023-01-01T16:22:49;53.70;;;28.88;;
21630;SDS011;10977;46.802;11.952;2023-01-01T16:25:16;52.40;;;30.38;;
21630;SDS011;10977;46.802;11.952;2023-01-01T16:27:43;39.67;;;22.73;;
21630;SDS011;10977;46.802;11.952;2023-01-01T16:30:09;31.60;;;19.40;;
21630;SDS011;10977;46.802;11.952;2023-01-01T16:32:36;28.85;;;17.42;;